sensor_id;sensor_type;location;lat;lon;timestamp;P1;durP1;ratioP1;P2;durP2;ratioP2
75087;SDS011;63664;44.868;40.600;2023-07-31T00:01:13;8.20;;;3.22;;
75087;SDS011;63664;44.868;40.600;2023-07-31T00:03:40;4.43;;;2.80;;
75087;SDS011;63664;44.868;40.600;2023-07-31T00:06:06;5.47;;;2.80;;
75087;SDS011;63664;44.868;40.600;2023-07-31T00:08:32;8.82;;;3.00;;
75087;SDS011;63664;44.868;40.600;2023-07-31T00:10:58;5.68;;;2.65;;
75087;SDS011;63664;44.868;40.600;2023-07-31T00:13:25;4.07;;;2.47;;
75087;SDS011;63664;44.868;40.600;2023-07-31T00:15:51;4.18;;;2.88;;
75087;SDS011;63664;44.868;40.600;2023-07-31T00:18:17;4.32;;;2.72;;
75087;SDS011;63664;44.868;40.600;2023-07-31T00:20:44;6.20;;;3.53;;
75087;SDS011;63664;44.868;40.600;2023-07-31T00:23:10;4.60;;;3.22;;
75087;SDS011;63664;44.868;40.600;2023-07-31T00:25:36;7.45;;;3.50;;
75087;SDS011;63664;44.868;40.600;2023-07-31T00:28:02;7.70;;;3.40;;
75087;SDS011;63664;44.868;40.600;2023-07-31T00:30:29;5.45;;;2.95;;
75087;SDS011;63664;44.868;40.600;2023-07-31T00:32:55;6.45;;;3.35;;
75087;SDS011;63664;44.868;40.600;2023-07-31T00:35:21;7.10;;;3.97;;
75087;SDS011;63664;44.868;40.600;2023-07-31T00:37:47;7.43;;;3.83;;
75087;SDS011;63664;44.868;40.600;2023-07-31T00:40:14;7.50;;;3.97;;
75087;SDS011;63664;44.868;40.600;2023-07-31T00:42:40;9.25;;;3.95;;
75087;SDS011;63664;44.868;40.600;2023-07-31T00:45:07;8.27;;;4.05;;
75087;SDS011;63664;44.868;40.600;2023-07-31T00:47:34;8.55;;;4.00;;
75087;SDS011;63664;44.868;40.600;2023-07-31T00:50:00;6.45;;;3.75;;
75087;SDS011;63664;44.868;40.600;2023-07-31T00:52:26;7.63;;;3.95;;
75087;SDS011;63664;44.868;40.600;2023-07-31T00:54:52;6.20;;;3.67;;
75087;SDS011;63664;44.868;40.600;2023-07-31T00:57:19;9.57;;;4.28;;
75087;SDS011;63664;44.868;40.600;2023-07-31T00:59:45;5.75;;;3.47;;
75087;SDS011;63664;44.868;40.600;2023-07-31T01:02:12;12.88;;;4.10;;
75087;SDS011;63664;44.868;40.600;2023-07-31T01:04:38;6.95;;;3.60;;
75087;SDS011;63664;44.868;40.600;2023-07-31T01:10:06;8.90;;;4.20;;
75087;SDS011;63664;44.868;40.600;2023-07-31T01:12:32;9.05;;;4.47;;
75087;SDS011;63664;44.868;40.600;2023-07-31T01:15:07;8.10;;;4.40;;
75087;SDS011;63664;44.868;40.600;2023-07-31T01:17:38;9.10;;;3.97;;
75087;SDS011;63664;44.868;40.600;2023-07-31T01:20:10;8.15;;;4.18;;
75087;SDS011;63664;44.868;40.600;2023-07-31T01:23:24;7.82;;;3.90;;
75087;SDS011;63664;44.868;40.600;2023-07-31T01:26:08;9.82;;;4.15;;
75087;SDS011;63664;44.868;40.600;2023-07-31T01:28:54;8.05;;;3.55;;
75087;SDS011;63664;44.868;40.600;2023-07-31T01:31:48;8.73;;;4.15;;
75087;SDS011;63664;44.868;40.600;2023-07-31T01:36:45;7.05;;;3.33;;
75087;SDS011;63664;44.868;40.600;2023-07-31T01:39:11;8.25;;;3.80;;
75087;SDS011;63664;44.868;40.600;2023-07-31T01:41:37;10.65;;;3.42;;
75087;SDS011;63664;44.868;40.600;2023-07-31T01:44:04;5.93;;;3.20;;
75087;SDS011;63664;44.868;40.600;2023-07-31T01:46:30;7.93;;;3.33;;
75087;SDS011;63664;44.868;40.600;2023-07-31T01:48:56;5.75;;;3.67;;
75087;SDS011;63664;44.868;40.600;2023-07-31T01:51:23;6.20;;;3.45;;
75087;SDS011;63664;44.868;40.600;2023-07-31T01:53:50;5.40;;;3.38;;
75087;SDS011;63664;44.868;40.600;2023-07-31T01:56:16;6.47;;;2.95;;
75087;SDS011;63664;44.868;40.600;2023-07-31T01:58:42;5.65;;;3.10;;
75087;SDS011;63664;44.868;40.600;2023-07-31T02:01:08;4.03;;;2.65;;
75087;SDS011;63664;44.868;40.600;2023-07-31T02:03:35;6.43;;;3.30;;
75087;SDS011;63664;44.868;40.600;2023-07-31T02:06:01;5.57;;;3.25;;
75087;SDS011;63664;44.868;40.600;2023-07-31T02:08:27;6.47;;;3.47;;
75087;SDS011;63664;44.868;40.600;2023-07-31T02:10:54;6.90;;;3.75;;
75087;SDS011;63664;44.868;40.600;2023-07-31T02:13:20;7.05;;;3.13;;
75087;SDS011;63664;44.868;40.600;2023-07-31T04:10:17;8.88;;;3.40;;
75087;SDS011;63664;44.868;40.600;2023-07-31T04:12:43;4.88;;;3.00;;
75087;SDS011;63664;44.868;40.600;2023-07-31T04:15:09;7.07;;;3.47;;
75087;SDS011;63664;44.868;40.600;2023-07-31T04:17:36;6.93;;;3.30;;
75087;SDS011;63664;44.868;40.600;2023-07-31T04:20:02;7.13;;;3.08;;
75087;SDS011;63664;44.868;40.600;2023-07-31T04:22:29;6.05;;;3.17;;
75087;SDS011;63664;44.868;40.600;2023-07-31T04:24:55;5.07;;;2.83;;
75087;SDS011;63664;44.868;40.600;2023-07-31T04:27:21;5.63;;;3.13;;
75087;SDS011;63664;44.868;40.600;2023-07-31T04:29:47;4.97;;;2.88;;
75087;SDS011;63664;44.868;40.600;2023-07-31T04:32:14;5.85;;;3.10;;
75087;SDS011;63664;44.868;40.600;2023-07-31T04:37:09;4.50;;;2.97;;
75087;SDS011;63664;44.868;40.600;2023-07-31T04:39:36;7.10;;;3.90;;
75087;SDS011;63664;44.868;40.600;2023-07-31T04:42:02;6.38;;;3.08;;
75087;SDS011;63664;44.868;40.600;2023-07-31T04:44:29;13.30;;;3.92;;
75087;SDS011;63664;44.868;40.600;2023-07-31T04:46:55;7.75;;;3.53;;
75087;SDS011;63664;44.868;40.600;2023-07-31T04:49:22;6.47;;;3.15;;
75087;SDS011;63664;44.868;40.600;2023-07-31T04:51:48;7.53;;;2.95;;
75087;SDS011;63664;44.868;40.600;2023-07-31T04:54:14;6.43;;;2.75;;
75087;SDS011;63664;44.868;40.600;2023-07-31T04:56:41;3.80;;;2.55;;
75087;SDS011;63664;44.868;40.600;2023-07-31T04:59:07;7.03;;;2.72;;
75087;SDS011;63664;44.868;40.600;2023-07-31T05:01:33;4.47;;;2.20;;
75087;SDS011;63664;44.868;40.600;2023-07-31T05:04:02;13.68;;;2.40;;
75087;SDS011;63664;44.868;40.600;2023-07-31T05:06:29;5.43;;;2.72;;
75087;SDS011;63664;44.868;40.600;2023-07-31T05:08:55;17.38;;;2.92;;
75087;SDS011;63664;44.868;40.600;2023-07-31T05:11:21;2.40;;;1.80;;
75087;SDS011;63664;44.868;40.600;2023-07-31T05:13:48;3.45;;;2.25;;
75087;SDS011;63664;44.868;40.600;2023-07-31T05:16:14;4.45;;;2.55;;
75087;SDS011;63664;44.868;40.600;2023-07-31T05:18:40;2.70;;;1.98;;
75087;SDS011;63664;44.868;40.600;2023-07-31T05:21:06;4.47;;;2.20;;
75087;SDS011;63664;44.868;40.600;2023-07-31T05:23:33;5.90;;;2.35;;
75087;SDS011;63664;44.868;40.600;2023-07-31T05:26:06;2.83;;;1.85;;
75087;SDS011;63664;44.868;40.600;2023-07-31T05:28:34;3.05;;;2.05;;
75087;SDS011;63664;44.868;40.600;2023-07-31T05:31:01;3.22;;;1.80;;
75087;SDS011;63664;44.868;40.600;2023-07-31T05:33:28;3.97;;;2.20;;
75087;SDS011;63664;44.868;40.600;2023-07-31T05:35:55;4.65;;;1.98;;
75087;SDS011;63664;44.868;40.600;2023-07-31T05:38:21;3.60;;;1.90;;
75087;SDS011;63664;44.868;40.600;2023-07-31T05:40:47;6.68;;;2.10;;
75087;SDS011;63664;44.868;40.600;2023-07-31T05:43:14;3.22;;;2.00;;
75087;SDS011;63664;44.868;40.600;2023-07-31T05:45:41;6.15;;;2.13;;
75087;SDS011;63664;44.868;40.600;2023-07-31T05:48:08;2.92;;;1.80;;
75087;SDS011;63664;44.868;40.600;2023-07-31T05:50:34;3.22;;;1.77;;
75087;SDS011;63664;44.868;40.600;2023-07-31T05:53:01;3.17;;;1.92;;
75087;SDS011;63664;44.868;40.600;2023-07-31T05:55:27;3.08;;;1.92;;
75087;SDS011;63664;44.868;40.600;2023-07-31T05:57:54;3.10;;;2.00;;
75087;SDS011;63664;44.868;40.600;2023-07-31T06:00:20;3.95;;;1.85;;
75087;SDS011;63664;44.868;40.600;2023-07-31T06:02:48;5.18;;;1.73;;
75087;SDS011;63664;44.868;40.600;2023-07-31T06:05:14;2.60;;;1.48;;
75087;SDS011;63664;44.868;40.600;2023-07-31T06:07:41;4.00;;;1.67;;
75087;SDS011;63664;44.868;40.600;2023-07-31T06:10:07;5.22;;;1.52;;
75087;SDS011;63664;44.868;40.600;2023-07-31T06:12:34;1.77;;;1.30;;
75087;SDS011;63664;44.868;40.600;2023-07-31T06:15:01;2.50;;;1.30;;
75087;SDS011;63664;44.868;40.600;2023-07-31T06:17:29;2.08;;;1.60;;
75087;SDS011;63664;44.868;40.600;2023-07-31T06:19:55;5.50;;;1.50;;
75087;SDS011;63664;44.868;40.600;2023-07-31T06:22:22;1.75;;;1.30;;
75087;SDS011;63664;44.868;40.600;2023-07-31T06:24:49;3.67;;;1.33;;
75087;SDS011;63664;44.868;40.600;2023-07-31T06:27:15;2.40;;;1.33;;
75087;SDS011;63664;44.868;40.600;2023-07-31T06:29:42;3.60;;;1.45;;
75087;SDS011;63664;44.868;40.600;2023-07-31T06:32:08;3.00;;;1.42;;
75087;SDS011;63664;44.868;40.600;2023-07-31T06:34:34;3.40;;;1.35;;
75087;SDS011;63664;44.868;40.600;2023-07-31T06:37:01;3.83;;;1.30;;
75087;SDS011;63664;44.868;40.600;2023-07-31T06:39:27;2.15;;;1.38;;
75087;SDS011;63664;44.868;40.600;2023-07-31T06:41:53;4.82;;;1.48;;
75087;SDS011;63664;44.868;40.600;2023-07-31T06:44:19;1.83;;;1.20;;
75087;SDS011;63664;44.868;40.600;2023-07-31T06:46:46;2.47;;;1.15;;
75087;SDS011;63664;44.868;40.600;2023-07-31T06:49:12;4.13;;;1.50;;
75087;SDS011;63664;44.868;40.600;2023-07-31T06:51:41;3.50;;;1.30;;
75087;SDS011;63664;44.868;40.600;2023-07-31T06:54:07;2.78;;;1.33;;
75087;SDS011;63664;44.868;40.600;2023-07-31T06:56:34;2.83;;;1.33;;
75087;SDS011;63664;44.868;40.600;2023-07-31T06:59:03;2.45;;;1.23;;
75087;SDS011;63664;44.868;40.600;2023-07-31T07:01:29;4.55;;;1.33;;
75087;SDS011;63664;44.868;40.600;2023-07-31T07:03:56;1.77;;;1.17;;
75087;SDS011;63664;44.868;40.600;2023-07-31T07:06:22;3.30;;;1.38;;
75087;SDS011;63664;44.868;40.600;2023-07-31T07:08:48;2.97;;;0.82;;
75087;SDS011;63664;44.868;40.600;2023-07-31T07:11:14;6.60;;;1.88;;
75087;SDS011;63664;44.868;40.600;2023-07-31T07:13:41;5.20;;;1.02;;
75087;SDS011;63664;44.868;40.600;2023-07-31T07:16:07;4.07;;;1.35;;
75087;SDS011;63664;44.868;40.600;2023-07-31T07:18:34;1.38;;;1.00;;
75087;SDS011;63664;44.868;40.600;2023-07-31T07:21:00;2.83;;;1.20;;
75087;SDS011;63664;44.868;40.600;2023-07-31T07:23:28;2.75;;;1.10;;
75087;SDS011;63664;44.868;40.600;2023-07-31T07:25:54;1.55;;;0.93;;
75087;SDS011;63664;44.868;40.600;2023-07-31T07:28:20;2.88;;;1.00;;
75087;SDS011;63664;44.868;40.600;2023-07-31T07:30:50;3.25;;;1.00;;
75087;SDS011;63664;44.868;40.600;2023-07-31T07:33:19;1.50;;;0.85;;
75087;SDS011;63664;44.868;40.600;2023-07-31T07:35:45;5.35;;;1.27;;
75087;SDS011;63664;44.868;40.600;2023-07-31T07:38:13;2.10;;;1.00;;
75087;SDS011;63664;44.868;40.600;2023-07-31T07:40:40;4.10;;;1.20;;
75087;SDS011;63664;44.868;40.600;2023-07-31T07:43:07;2.83;;;1.35;;
75087;SDS011;63664;44.868;40.600;2023-07-31T07:45:33;3.15;;;1.20;;
75087;SDS011;63664;44.868;40.600;2023-07-31T07:47:59;4.00;;;1.17;;
75087;SDS011;63664;44.868;40.600;2023-07-31T07:50:25;2.45;;;1.00;;
75087;SDS011;63664;44.868;40.600;2023-07-31T07:52:52;5.00;;;1.00;;
75087;SDS011;63664;44.868;40.600;2023-07-31T07:55:18;1.42;;;1.00;;
75087;SDS011;63664;44.868;40.600;2023-07-31T07:57:44;1.67;;;1.02;;
75087;SDS011;63664;44.868;40.600;2023-07-31T08:00:12;1.75;;;0.90;;
75087;SDS011;63664;44.868;40.600;2023-07-31T08:02:41;4.65;;;1.00;;
75087;SDS011;63664;44.868;40.600;2023-07-31T08:05:08;1.98;;;1.08;;
75087;SDS011;63664;44.868;40.600;2023-07-31T08:07:34;3.55;;;0.90;;
75087;SDS011;63664;44.868;40.600;2023-07-31T08:10:00;3.03;;;1.10;;
75087;SDS011;63664;44.868;40.600;2023-07-31T08:12:28;4.55;;;1.08;;
75087;SDS011;63664;44.868;40.600;2023-07-31T08:14:54;1.58;;;1.08;;
75087;SDS011;63664;44.868;40.600;2023-07-31T08:17:20;3.72;;;1.10;;
75087;SDS011;63664;44.868;40.600;2023-07-31T08:19:46;2.85;;;1.42;;
75087;SDS011;63664;44.868;40.600;2023-07-31T08:22:13;1.88;;;1.00;;
75087;SDS011;63664;44.868;40.600;2023-07-31T08:24:40;1.80;;;0.90;;
75087;SDS011;63664;44.868;40.600;2023-07-31T08:27:06;1.73;;;1.00;;
75087;SDS011;63664;44.868;40.600;2023-07-31T08:29:32;1.67;;;1.00;;
75087;SDS011;63664;44.868;40.600;2023-07-31T08:31:59;1.48;;;1.05;;
75087;SDS011;63664;44.868;40.600;2023-07-31T08:34:25;1.80;;;0.85;;
75087;SDS011;63664;44.868;40.600;2023-07-31T08:36:52;1.30;;;0.90;;
75087;SDS011;63664;44.868;40.600;2023-07-31T08:39:18;2.55;;;1.35;;
75087;SDS011;63664;44.868;40.600;2023-07-31T08:41:44;1.92;;;1.13;;
75087;SDS011;63664;44.868;40.600;2023-07-31T08:44:11;4.45;;;1.20;;
75087;SDS011;63664;44.868;40.600;2023-07-31T08:46:39;5.57;;;1.73;;
75087;SDS011;63664;44.868;40.600;2023-07-31T08:49:07;1.45;;;0.95;;
75087;SDS011;63664;44.868;40.600;2023-07-31T08:51:35;3.20;;;1.13;;
75087;SDS011;63664;44.868;40.600;2023-07-31T08:54:02;2.00;;;1.15;;
75087;SDS011;63664;44.868;40.600;2023-07-31T08:56:32;1.63;;;1.10;;
75087;SDS011;63664;44.868;40.600;2023-07-31T08:58:59;1.15;;;0.73;;
75087;SDS011;63664;44.868;40.600;2023-07-31T09:01:30;2.22;;;1.30;;
75087;SDS011;63664;44.868;40.600;2023-07-31T09:03:59;7.13;;;1.20;;
75087;SDS011;63664;44.868;40.600;2023-07-31T09:06:28;5.20;;;1.38;;
75087;SDS011;63664;44.868;40.600;2023-07-31T09:08:56;7.65;;;0.80;;
75087;SDS011;63664;44.868;40.600;2023-07-31T09:11:23;2.00;;;1.02;;
75087;SDS011;63664;44.868;40.600;2023-07-31T09:13:51;1.42;;;0.90;;
75087;SDS011;63664;44.868;40.600;2023-07-31T09:16:18;2.10;;;1.02;;
75087;SDS011;63664;44.868;40.600;2023-07-31T09:19:02;2.95;;;0.95;;
75087;SDS011;63664;44.868;40.600;2023-07-31T09:21:30;2.53;;;1.20;;
75087;SDS011;63664;44.868;40.600;2023-07-31T09:23:56;3.75;;;1.40;;
75087;SDS011;63664;44.868;40.600;2023-07-31T09:26:30;2.70;;;1.08;;
75087;SDS011;63664;44.868;40.600;2023-07-31T09:29:01;1.30;;;0.88;;
75087;SDS011;63664;44.868;40.600;2023-07-31T09:34:07;1.98;;;1.13;;
75087;SDS011;63664;44.868;40.600;2023-07-31T09:36:41;1.33;;;0.93;;
75087;SDS011;63664;44.868;40.600;2023-07-31T09:39:19;3.60;;;0.95;;
75087;SDS011;63664;44.868;40.600;2023-07-31T09:41:54;2.92;;;0.95;;
75087;SDS011;63664;44.868;40.600;2023-07-31T09:44:21;3.53;;;1.25;;
75087;SDS011;63664;44.868;40.600;2023-07-31T09:47:03;2.55;;;1.38;;
75087;SDS011;63664;44.868;40.600;2023-07-31T09:49:29;6.22;;;1.88;;
75087;SDS011;63664;44.868;40.600;2023-07-31T09:51:56;2.45;;;1.10;;
75087;SDS011;63664;44.868;40.600;2023-07-31T09:54:22;4.00;;;1.30;;
75087;SDS011;63664;44.868;40.600;2023-07-31T09:56:48;2.05;;;1.20;;
75087;SDS011;63664;44.868;40.600;2023-07-31T09:59:15;1.65;;;1.05;;
75087;SDS011;63664;44.868;40.600;2023-07-31T10:24:50;1.77;;;0.80;;
75087;SDS011;63664;44.868;40.600;2023-07-31T10:27:20;1.05;;;0.85;;
75087;SDS011;63664;44.868;40.600;2023-07-31T10:29:46;1.73;;;1.17;;
75087;SDS011;63664;44.868;40.600;2023-07-31T10:32:14;1.58;;;1.00;;
75087;SDS011;63664;44.868;40.600;2023-07-31T10:34:42;1.17;;;0.95;;
75087;SDS011;63664;44.868;40.600;2023-07-31T10:42:31;2.88;;;0.90;;
75087;SDS011;63664;44.868;40.600;2023-07-31T10:45:03;2.70;;;1.10;;
75087;SDS011;63664;44.868;40.600;2023-07-31T10:47:36;1.80;;;0.90;;
75087;SDS011;63664;44.868;40.600;2023-07-31T10:50:38;6.88;;;1.50;;
75087;SDS011;63664;44.868;40.600;2023-07-31T10:53:01;1.35;;;1.00;;
75087;SDS011;63664;44.868;40.600;2023-07-31T10:58:08;4.38;;;0.98;;
75087;SDS011;63664;44.868;40.600;2023-07-31T11:00:41;3.00;;;1.10;;
75087;SDS011;63664;44.868;40.600;2023-07-31T11:05:49;4.55;;;0.93;;
75087;SDS011;63664;44.868;40.600;2023-07-31T11:08:41;4.10;;;1.38;;
75087;SDS011;63664;44.868;40.600;2023-07-31T11:11:10;1.83;;;1.30;;
75087;SDS011;63664;44.868;40.600;2023-07-31T11:13:43;2.10;;;1.13;;
75087;SDS011;63664;44.868;40.600;2023-07-31T12:07:25;2.10;;;1.00;;
75087;SDS011;63664;44.868;40.600;2023-07-31T12:09:52;1.67;;;0.95;;
75087;SDS011;63664;44.868;40.600;2023-07-31T12:12:25;3.53;;;1.10;;
75087;SDS011;63664;44.868;40.600;2023-07-31T12:14:51;1.65;;;1.08;;
75087;SDS011;63664;44.868;40.600;2023-07-31T12:17:19;3.70;;;1.10;;
75087;SDS011;63664;44.868;40.600;2023-07-31T12:19:49;2.35;;;0.90;;
75087;SDS011;63664;44.868;40.600;2023-07-31T12:22:15;2.45;;;1.05;;
75087;SDS011;63664;44.868;40.600;2023-07-31T12:24:42;1.40;;;0.85;;
75087;SDS011;63664;44.868;40.600;2023-07-31T12:27:14;2.05;;;1.23;;
75087;SDS011;63664;44.868;40.600;2023-07-31T12:29:41;5.82;;;1.23;;
75087;SDS011;63664;44.868;40.600;2023-07-31T12:32:23;1.00;;;0.80;;
75087;SDS011;63664;44.868;40.600;2023-07-31T12:34:51;2.35;;;1.00;;
75087;SDS011;63664;44.868;40.600;2023-07-31T12:37:17;2.70;;;0.90;;
75087;SDS011;63664;44.868;40.600;2023-07-31T12:39:43;3.17;;;1.15;;
75087;SDS011;63664;44.868;40.600;2023-07-31T12:42:09;1.55;;;0.82;;
75087;SDS011;63664;44.868;40.600;2023-07-31T12:44:36;4.05;;;1.00;;
75087;SDS011;63664;44.868;40.600;2023-07-31T12:47:04;4.15;;;1.05;;
75087;SDS011;63664;44.868;40.600;2023-07-31T12:49:30;2.33;;;1.08;;
75087;SDS011;63664;44.868;40.600;2023-07-31T12:51:56;1.75;;;0.95;;
75087;SDS011;63664;44.868;40.600;2023-07-31T12:54:22;3.00;;;1.20;;
75087;SDS011;63664;44.868;40.600;2023-07-31T12:56:49;2.55;;;1.20;;
75087;SDS011;63664;44.868;40.600;2023-07-31T13:07:21;2.33;;;1.20;;
75087;SDS011;63664;44.868;40.600;2023-07-31T13:09:48;1.60;;;0.95;;
75087;SDS011;63664;44.868;40.600;2023-07-31T13:12:14;34.17;;;2.78;;
75087;SDS011;63664;44.868;40.600;2023-07-31T13:14:41;3.90;;;1.20;;
75087;SDS011;63664;44.868;40.600;2023-07-31T13:17:07;4.22;;;1.52;;
75087;SDS011;63664;44.868;40.600;2023-07-31T13:19:33;1.77;;;1.00;;
75087;SDS011;63664;44.868;40.600;2023-07-31T13:22:00;4.38;;;1.23;;
75087;SDS011;63664;44.868;40.600;2023-07-31T13:24:26;5.95;;;1.45;;
75087;SDS011;63664;44.868;40.600;2023-07-31T13:26:52;1.83;;;0.90;;
75087;SDS011;63664;44.868;40.600;2023-07-31T13:29:19;6.15;;;1.33;;
75087;SDS011;63664;44.868;40.600;2023-07-31T13:31:45;2.65;;;1.30;;
75087;SDS011;63664;44.868;40.600;2023-07-31T13:34:12;1.90;;;1.05;;
75087;SDS011;63664;44.868;40.600;2023-07-31T13:36:38;4.70;;;1.20;;
75087;SDS011;63664;44.868;40.600;2023-07-31T13:39:04;2.38;;;0.90;;
75087;SDS011;63664;44.868;40.600;2023-07-31T13:41:31;1.70;;;0.95;;
75087;SDS011;63664;44.868;40.600;2023-07-31T13:43:57;3.10;;;1.38;;
75087;SDS011;63664;44.868;40.600;2023-07-31T13:46:23;4.40;;;1.20;;
75087;SDS011;63664;44.868;40.600;2023-07-31T13:48:51;2.45;;;1.20;;
75087;SDS011;63664;44.868;40.600;2023-07-31T13:51:21;3.00;;;1.67;;
75087;SDS011;63664;44.868;40.600;2023-07-31T13:53:47;3.15;;;1.35;;
75087;SDS011;63664;44.868;40.600;2023-07-31T13:56:14;1.30;;;1.08;;
75087;SDS011;63664;44.868;40.600;2023-07-31T13:58:40;2.08;;;1.20;;
75087;SDS011;63664;44.868;40.600;2023-07-31T14:01:06;1.85;;;1.55;;
75087;SDS011;63664;44.868;40.600;2023-07-31T14:03:33;4.13;;;2.35;;
75087;SDS011;63664;44.868;40.600;2023-07-31T14:05:59;3.00;;;1.40;;
75087;SDS011;63664;44.868;40.600;2023-07-31T14:08:25;4.80;;;2.22;;
75087;SDS011;63664;44.868;40.600;2023-07-31T14:10:51;3.58;;;1.42;;
75087;SDS011;63664;44.868;40.600;2023-07-31T14:13:17;3.33;;;1.25;;
75087;SDS011;63664;44.868;40.600;2023-07-31T14:15:44;2.75;;;1.42;;
75087;SDS011;63664;44.868;40.600;2023-07-31T14:18:10;2.28;;;1.55;;
75087;SDS011;63664;44.868;40.600;2023-07-31T14:20:36;4.55;;;2.30;;
75087;SDS011;63664;44.868;40.600;2023-07-31T14:23:03;5.47;;;2.85;;
75087;SDS011;63664;44.868;40.600;2023-07-31T14:25:30;4.38;;;2.28;;
75087;SDS011;63664;44.868;40.600;2023-07-31T14:27:56;5.65;;;2.10;;
75087;SDS011;63664;44.868;40.600;2023-07-31T14:30:22;2.13;;;1.20;;
75087;SDS011;63664;44.868;40.600;2023-07-31T14:32:49;3.28;;;1.27;;
75087;SDS011;63664;44.868;40.600;2023-07-31T14:35:15;3.42;;;2.10;;
75087;SDS011;63664;44.868;40.600;2023-07-31T14:37:42;2.50;;;1.35;;
75087;SDS011;63664;44.868;40.600;2023-07-31T14:40:10;3.58;;;1.83;;
75087;SDS011;63664;44.868;40.600;2023-07-31T14:42:38;4.25;;;1.65;;
75087;SDS011;63664;44.868;40.600;2023-07-31T14:45:06;3.90;;;1.85;;
75087;SDS011;63664;44.868;40.600;2023-07-31T14:47:33;4.85;;;1.38;;
75087;SDS011;63664;44.868;40.600;2023-07-31T14:50:00;2.38;;;1.52;;
75087;SDS011;63664;44.868;40.600;2023-07-31T14:52:26;3.08;;;1.73;;
75087;SDS011;63664;44.868;40.600;2023-07-31T14:54:52;5.35;;;1.60;;
75087;SDS011;63664;44.868;40.600;2023-07-31T14:57:19;3.67;;;1.40;;
75087;SDS011;63664;44.868;40.600;2023-07-31T14:59:45;3.97;;;1.70;;
75087;SDS011;63664;44.868;40.600;2023-07-31T15:02:12;1.65;;;1.00;;
75087;SDS011;63664;44.868;40.600;2023-07-31T15:04:38;3.17;;;1.60;;
75087;SDS011;63664;44.868;40.600;2023-07-31T15:07:05;2.90;;;1.20;;
75087;SDS011;63664;44.868;40.600;2023-07-31T15:09:31;5.95;;;1.30;;
75087;SDS011;63664;44.868;40.600;2023-07-31T15:11:57;2.40;;;1.00;;
75087;SDS011;63664;44.868;40.600;2023-07-31T15:14:24;2.53;;;1.50;;
75087;SDS011;63664;44.868;40.600;2023-07-31T15:16:51;3.67;;;1.60;;
75087;SDS011;63664;44.868;40.600;2023-07-31T15:19:17;2.53;;;1.48;;
75087;SDS011;63664;44.868;40.600;2023-07-31T15:21:44;2.72;;;1.20;;
75087;SDS011;63664;44.868;40.600;2023-07-31T15:24:10;2.33;;;1.45;;
75087;SDS011;63664;44.868;40.600;2023-07-31T15:26:36;3.00;;;1.50;;
75087;SDS011;63664;44.868;40.600;2023-07-31T15:29:04;4.63;;;1.80;;
75087;SDS011;63664;44.868;40.600;2023-07-31T15:31:34;4.65;;;2.15;;
75087;SDS011;63664;44.868;40.600;2023-07-31T15:34:01;5.43;;;2.08;;
75087;SDS011;63664;44.868;40.600;2023-07-31T15:36:27;10.15;;;2.13;;
75087;SDS011;63664;44.868;40.600;2023-07-31T15:38:53;3.97;;;1.70;;
75087;SDS011;63664;44.868;40.600;2023-07-31T15:41:19;2.75;;;1.83;;
75087;SDS011;63664;44.868;40.600;2023-07-31T15:43:46;3.60;;;1.75;;
75087;SDS011;63664;44.868;40.600;2023-07-31T15:46:12;7.22;;;1.70;;
75087;SDS011;63664;44.868;40.600;2023-07-31T15:48:39;5.38;;;1.73;;
75087;SDS011;63664;44.868;40.600;2023-07-31T15:51:05;5.75;;;1.98;;
75087;SDS011;63664;44.868;40.600;2023-07-31T15:53:32;4.07;;;1.58;;
75087;SDS011;63664;44.868;40.600;2023-07-31T15:55:58;5.18;;;1.42;;
75087;SDS011;63664;44.868;40.600;2023-07-31T15:58:24;4.07;;;1.60;;
75087;SDS011;63664;44.868;40.600;2023-07-31T16:00:53;4.28;;;1.90;;
75087;SDS011;63664;44.868;40.600;2023-07-31T16:03:20;6.95;;;1.65;;
75087;SDS011;63664;44.868;40.600;2023-07-31T16:05:47;7.70;;;2.20;;
75087;SDS011;63664;44.868;40.600;2023-07-31T16:08:14;4.82;;;1.90;;
75087;SDS011;63664;44.868;40.600;2023-07-31T16:10:40;5.50;;;2.30;;
75087;SDS011;63664;44.868;40.600;2023-07-31T16:13:07;5.45;;;2.00;;
75087;SDS011;63664;44.868;40.600;2023-07-31T16:15:33;4.10;;;2.10;;
75087;SDS011;63664;44.868;40.600;2023-07-31T16:17:59;6.18;;;1.95;;
75087;SDS011;63664;44.868;40.600;2023-07-31T16:20:25;7.95;;;2.15;;
75087;SDS011;63664;44.868;40.600;2023-07-31T16:22:53;3.70;;;1.98;;
75087;SDS011;63664;44.868;40.600;2023-07-31T16:25:20;6.07;;;2.35;;
75087;SDS011;63664;44.868;40.600;2023-07-31T16:27:46;4.15;;;2.10;;
75087;SDS011;63664;44.868;40.600;2023-07-31T16:30:13;4.68;;;1.85;;
75087;SDS011;63664;44.868;40.600;2023-07-31T16:32:39;6.72;;;2.00;;
75087;SDS011;63664;44.868;40.600;2023-07-31T16:35:05;4.68;;;2.20;;
75087;SDS011;63664;44.868;40.600;2023-07-31T16:37:32;10.40;;;1.65;;
75087;SDS011;63664;44.868;40.600;2023-07-31T16:39:59;6.25;;;2.22;;
75087;SDS011;63664;44.868;40.600;2023-07-31T16:42:25;6.07;;;2.30;;
75087;SDS011;63664;44.868;40.600;2023-07-31T16:44:52;8.00;;;2.80;;
75087;SDS011;63664;44.868;40.600;2023-07-31T16:47:18;5.00;;;1.85;;
75087;SDS011;63664;44.868;40.600;2023-07-31T16:49:44;5.75;;;2.22;;
75087;SDS011;63664;44.868;40.600;2023-07-31T16:52:11;9.05;;;2.40;;
75087;SDS011;63664;44.868;40.600;2023-07-31T16:54:37;9.02;;;3.13;;
75087;SDS011;63664;44.868;40.600;2023-07-31T16:57:03;10.32;;;3.53;;
75087;SDS011;63664;44.868;40.600;2023-07-31T16:59:30;8.88;;;3.22;;
75087;SDS011;63664;44.868;40.600;2023-07-31T17:01:56;11.70;;;4.40;;
75087;SDS011;63664;44.868;40.600;2023-07-31T17:04:22;13.85;;;6.00;;
75087;SDS011;63664;44.868;40.600;2023-07-31T17:06:49;15.10;;;7.22;;
75087;SDS011;63664;44.868;40.600;2023-07-31T17:09:15;21.52;;;9.18;;
75087;SDS011;63664;44.868;40.600;2023-07-31T17:11:42;24.75;;;12.07;;
75087;SDS011;63664;44.868;40.600;2023-07-31T17:14:08;30.83;;;13.57;;
75087;SDS011;63664;44.868;40.600;2023-07-31T17:16:35;28.25;;;12.02;;
75087;SDS011;63664;44.868;40.600;2023-07-31T17:19:02;45.13;;;17.33;;
75087;SDS011;63664;44.868;40.600;2023-07-31T17:21:29;39.05;;;16.30;;
75087;SDS011;63664;44.868;40.600;2023-07-31T17:23:55;31.85;;;15.25;;
75087;SDS011;63664;44.868;40.600;2023-07-31T17:26:22;28.63;;;11.75;;
75087;SDS011;63664;44.868;40.600;2023-07-31T17:28:49;27.85;;;10.90;;
75087;SDS011;63664;44.868;40.600;2023-07-31T17:31:16;23.83;;;9.82;;
75087;SDS011;63664;44.868;40.600;2023-07-31T17:33:42;17.05;;;7.13;;
75087;SDS011;63664;44.868;40.600;2023-07-31T17:36:09;25.90;;;7.80;;
75087;SDS011;63664;44.868;40.600;2023-07-31T17:38:35;33.08;;;8.82;;
75087;SDS011;63664;44.868;40.600;2023-07-31T17:41:01;31.70;;;10.13;;
75087;SDS011;63664;44.868;40.600;2023-07-31T17:43:27;24.50;;;9.88;;
75087;SDS011;63664;44.868;40.600;2023-07-31T17:45:54;13.90;;;5.40;;
75087;SDS011;63664;44.868;40.600;2023-07-31T17:48:20;16.50;;;5.22;;
75087;SDS011;63664;44.868;40.600;2023-07-31T17:50:51;12.90;;;4.50;;
75087;SDS011;63664;44.868;40.600;2023-07-31T17:53:19;10.55;;;4.13;;
75087;SDS011;63664;44.868;40.600;2023-07-31T17:55:46;11.40;;;4.25;;
75087;SDS011;63664;44.868;40.600;2023-07-31T20:20:17;13.35;;;5.93;;
75087;SDS011;63664;44.868;40.600;2023-07-31T20:22:44;13.60;;;5.85;;
75087;SDS011;63664;44.868;40.600;2023-07-31T20:25:10;12.55;;;5.03;;
75087;SDS011;63664;44.868;40.600;2023-07-31T20:27:36;12.60;;;5.75;;
75087;SDS011;63664;44.868;40.600;2023-07-31T20:30:02;11.15;;;5.55;;
75087;SDS011;63664;44.868;40.600;2023-07-31T20:32:29;12.48;;;5.28;;
75087;SDS011;63664;44.868;40.600;2023-07-31T20:34:55;15.70;;;5.20;;